METAR

METAR RPLL (MNL) – NINOY AQUINO INTERNATIONAL AIRPORT(MANILA INTERNATIONAL AIRPORT)
RPLL 270100Z 25013KT 210V270 9999 SCT025 BKN100 30/26 Q1008 NOSIG RMK A2977
RPLL 270000Z 23008KT 200V260 9999 SCT025 BKNK100 30/26 Q1007 NOSIG RMK A2974
RPLL 262300Z 26007KT 9999 SCT023 BKN100 28/26 Q1007 NOSIG RMK A2974
RPLL 262200Z 23005KT 9999 FEW023 SCT025 BKN100 27/26 Q1006 NOSIG RMK A2971
RPLL 262100Z 23004KT 200V270 9999 SCT023 BKN090 27/26 Q1006 NOSIG RMK A2971
RPLL 262000Z 23005KT 180V250 9000 -RA BKN020 OVC090 27/26 Q1006 NOSIG RMK A2971
RPLL 261900Z VRB02KT 9000 BKN020 OVC090 26/26 Q1006 NOSIG RMK A2971
RPLL 261800Z 00000KT 9000 BKN022 OVC090 26/26 Q1006 NOSIG RMK A2971
RPLL 261700Z VRB01KT 9000 -RA BKN020 OVC090 26/26 Q1006 NOSIG RMK A2971
RPLL 261600Z VRB01KT 9000 -RA BKN022 OVC090 26/26 Q1007 NOSIG RMK A2974
RPLL 261500Z VRB02KT 9000 -RA SCT022 OVC090 26/25 Q1008 NOSIG RMK A2977
RPLL 261400Z 03003KT 9999 FEW020 SCT100 30/25 Q1011 NOSIG RMK A2985
RPLL 261300Z 32007KT 6000 RA BKN020 OVC080 26/26 Q1008 NOSIG RMK A2977
RPLL 261200Z 32010KT 280V350 6000 RA BKN020 OVC080 26/25 Q1008 NOSIG RMK A2977
RPLL 261100Z 31007KT 8000 -RA BKN020 OVC080 27/25 Q1007 RMK A2974
RPLL 261000Z 32006KT 8000 -RA SCT020 OVC080 27/25 Q1006 NOSIG RMK A2974
RPLL 260900Z 31008KT 8000 -RA SCT020 OVC080 27/26 Q1006 NOSIG RMK A2971
RPLL 260800Z 34008KT 290V030 8000 -RA SCT020 OVC080 27/25 Q1006 NOSIG RMK A2971
RPLL 260700Z 31006KT 280V360 8000 -RA SCT020 OVC080 27/25 Q1005 NOSIG RMK A2968
RPLL 260600Z 32012KT 290V020 8000 -RA SCT020 OVC080 27/25 Q1006 NOSIG RMK A2971
RPLL 260500Z 34011KT 310V010 9000 -RA SCT020 OVC080 27/25 Q1006 NOSIG RMK A2971
RPLL 260400Z 34012KT 7000 -RA BKN015 OVC080 27/26 Q1006 NOSIG RMK A2971
RPLL 260300Z 33013KT 9000 -RA BKN015 OVC080 27/26 Q1007 NOSIG RMK A2974
RPLL 260200Z 34010KT 310V010 9000 -RA BKN015 OVC080 26/26 Q1007 NOSIG RMK A2974
RPLL 260100Z 33008KT 290V360 9000 -RA BKN015 OVC080 26/26 Q1007 NOSIG RMK A2974
RPLL 260000Z 36010KT 320V040 7000 -RA BKN015 OVC080 26/26 Q1007 NOSIG RMK A2974
RPLL 252300Z 36006KT 5000 RA BKN015 OVC080 26/25 Q1006 NOSIG RMK A2971
RPLL 252200Z 36011KT 5000 RA FEW010 BKN015 OVC080 26/25 Q1006 NOSIG RMK A2971
RPLL 252100Z 35010KT 310V020 9000 -RA FEW010 SCT015 OVC090 26/25 Q1005 NOSIG RMK A2968
RPLL 252000Z 34010KT 300V030 9000 -RA SCT015 OVC090 26/25 Q1006 NOSIG RMK A2971
RPLL 251900Z 36010KT 9999 SCT015 OVC090 27/25 Q1006 NOSIG RMK A2971
RPLL 251800Z 34008KT 310V020 9000 -RA FEW015 SCT020 OVC080 26/26 Q1006 NOSIG RMK A2971
RPLL 251700Z 35008KT 320V040 8000 -RA FEW015 SCT020 OVC080 27/26 Q1007 RERA NOSIG RMK A2974
RPLL 251600Z 36005KT 310V040 6000 RA SCT018 OVC060 27/26 Q1008 TEMPO 4000 +RA RMK A2977
RPLL 251500Z 04003KT 360V080 7000 RA SCT020 OVC070 27/26 Q1009 NOSIG RMK A2980
RPLL 251400Z 01004KT 350V060 9000 -RA SCT022 OVC090 28/26 Q1009 NOSIG RMK A2980
RPLL 251300Z 02006KT 340V060 9000 -RA SCT022 OVC090 28/26 Q1009 NOSIG RMK A2980
RPLL 251200Z VRB02KT 8000 -RA SCT020 OVC080 27/27 Q1008 NOSIG RMK A2977
RPLL 251100Z 09003KT 060V160 9000 -RA SCT022 OVC090 27/22 Q1008 NOSIG RMK A2977
RPLL 251000Z VRB02KT 9000 -RA SCT022 OVC090 27/26 Q1008 NOSIG RMK A2977

RPVM (CEB) – MACTAN-CEBU INTERNATIONAL AIRPORT
RPVM 270100Z 23009KT 9999 FEW020 BKN100 31/25 Q1010 NOSIG RMK A2983
RPVM 270000Z 19004KT 150V240 9999 FEW020 BKN100 31/26 Q1010 NOSIG RMK A2983
RPVM 262300Z 21003KT 170V230 9999 FEW018CB BKN100 30/26 Q1010 NOSIG RMK A2983 CB N/SW/W
RPVM 262200Z 16003KT 9999 FEW018CB BKN100 29/26 Q1010 NOSIG RMK A2983 CB E
RPVM 262100Z 19002KT 9999 FEW018CB BKN100 29/25 Q1009 NOSIG RMK A2980 CB NE
RPVM 262000Z VRB02KT 9999 FEW018CB BKN100 29/26 Q1009 NOSIG RMK A2980 CB NE
RPVM 261900Z 00000KT 9999 FEW018CB BKN100 29/25 Q1009 NOSIG RMK A2980 CB NE
RPVM 261800Z VRB03KT 9999 FEW020 BKNB250 29/25 Q1009 NOSIG RMK A2980
RPVM 261700Z 34003KT 9999 FEW020 BKN100 28/26 Q1010 NOSIG RMK A2983
RPVM 261600Z 35002KT 9999 FEW020 BKN100 30/25 Q1010 NOSIG RMK A2983
RPVM 261500Z 01002KT 9999 FEW020 BKN100 30/25 Q1010 NOSIG RMK A2983
RPVM 261400Z 03003KT 9999 FEW020 SCT100 30/25 Q1011 NOSIG RMK A2985
RPVM 261200Z VRB01KT 9999 FEW020 BKN300 30/25 Q1010 NOSIG RMK A2983
RPVM 261100Z 05003KT 9999 FEW020 BKN100 31/25 Q1010 NOSIG RMK A2983
RPVM 261000Z 05003KT 9999 FEW018CB BKN100 32/25 Q1009 NOSIG RMK A2980 CB SE
RPVM 260900Z 22011KT 9999 FEW018CB BKN10033/25 Q1009 NOSIG RMK A2980 CB N/NE
RPVM 260800Z 22012KT 9999 FEW018CB BKN250 34/25 Q1008 NOSIG RMK A2977 CB N
RPVM 260700Z 25015KT 9999 FEW018CB BKN100 34/24 Q1008 NOSIG RMK A2977 CB N
RPVM 260600Z 24015KT 9999 FEW018CB BKN100 35/25 Q1008 NOSIG RMK A2977 CB N/SW
RPVM 260500Z 24013KT 9999 FEW020 BKN100 34/25 Q1010 NOSIG RMK A2983
RPVM 260400Z 23011KT 9999 FEW020 BKN100 33/25 Q1010 NOSIG RMK A2983
RPVM 260300Z 23013KT 9999 FEW020 BKN100 33/25 Q1010 NOSIG RMK A2983
RPVM 260200Z 20009KT 160V230 9999 FEW020 BKN250 31/25 Q1010 NOSIG RMK A2983
RPVM 260100Z 21009KT 170V240 9999 FEW020 BKN250 31/25 Q1010 NOSIG RMK A2983
RPVM 260000Z 22007KT 190V250 9999 FEW020 BKN300 30/26 Q1010 NOSIG RMK A2983
RPVM 252300Z 23006KT 9999 FEW020 BKN300 29/26 Q1010 NOSIG RMK A2983
RPVM 252100Z 23003KT 9999 FEW020 SCT300 28/25 Q1009 NOSIG RMK A2980
RPVM 252000Z 21003KT 9999 FEW020 SCT300 28/26 Q1008 NOSIG RMK A2977
RPVM 251900Z 21002KT 9999 FEW018CB BKN100 28/26 Q1009 NOSIG RMK A2980 CB NW
RPVM 251800Z 20002KT 9999 FEW020 BKN250 28/26 Q1009 NOSIG RMK A2980
RPVM 251700Z VRB01KT 9999 FEW020 BKN100 29/26 Q1009 NOSIG RMK A2980
RPVM 251600Z VRB01KT 9999 FEW018CB BKN100 29/26 Q1010 NOSIG RMK A2983 CB E
RPVM 251500Z 00000KT 9999 FEW018CB BKN100 29/26 Q1010 NOSIG RMK A2983 CB NE/E
RPVM 251400Z VRB01KT 9999 FEW018CB BKN100 29/25 Q1010 NOSIG RMK A2983 CB NE
RPVM 251300Z 35004KT 310V040 9999 FEW020 OVC100 29/25 Q1010 NOSIG RMK A2983
RPVM 251200Z 32007KT 270V330 9999 SCT018CB OVC100 29/25 Q1009 NOSIG RMK A2980 CB SW/N
RPVM 251100Z 16003KT 9999 SCT018CB OVC100 30/25 Q1009 NOSIG RMK A2980 CB SW W-NW-N
RPVM 251000Z 10003KT 070V160 9999 SCT018CB OVC100 30/25 Q1008 NOSIG RMK A2977 CB SE-E SW NW N

RPLC (CRK) – CLARK INTERNATIONAL AIRPORT
RPLC 270100Z 12003KT 4000 HZ SCT020 30/26 Q1008 RMK A29877
RPLC 270000Z 36002KT 4000 HZ SCT020 27/25 Q1008 RMK A2977
RPLC 262300Z 14002KT 4000 BR SCT020 BKN100 26/25 Q1008 RMK A2977
RPLC 262200Z 34002KT 3000 BR SCT020 BKN100 26/25 Q1007 RMK A2974
RPLC 262100Z 18002KT 3000 BR SCT020 BKN100 26/25 Q1007 RMK A2974
RPLC 262000Z 18002KT 2000 BR SCT018 BKN100 26/25 Q1007 RMK A2974
RPLC 261900Z 17004KT 0800 FG SCT010 OVC100 26/25 Q1007 RMK A2974
RPLC 261800Z 18004KT 0300 FG SCT010 OVC100 25/25 Q1006 RMK A2971
RPLC 261600Z 18003KT 5000 HZ SCT020 OVC100 25/25 Q1008 NOSIG RMK A2977
RPLC 261500Z 20003KT 5000 HZ SCT020 OVC100 26/25 Q1008 NOSIG RMK A2977
RPLC 261400Z 18003KT 6000 SCT019 OVC100 26/25 Q1008 RMK A2977 RERA
RPLC 261300Z 16002KT 4000 -RA SCT019 OVC090 26/25 Q1008 RMK A2977
RPLC 261200Z 36002KT 4000 -RA SCT019 OVC090 26/25 Q1008 RMK A2977
RPLC 261100Z 32002KT 4000 -RA SCT019 OVC090 26/25 Q1008 RETS RMK A2977
RPLC 261000Z 36006KT 4000 -TSRA FEW015CB SCT018 OVC090 25/25 Q1007 RMK A2974 CB OVH
RPLC 260900Z 25004KT 5000 -RA SCT018 OVC090 27/25 Q1007 RMK A2974
RPLC 260800Z 05006KT 5000 -RA SCT018 OVC090 27/25 Q1006 RMK A2971
RPLC 260600Z 36005KT 7000 SCT018 OVC100 30/24 Q1007 NOSIG RMK A2974
RPLC 260500Z 36007KT 7000 SCT018 OVC100 29/25 Q1009 NOSIG RMK A2980
RPLC 260400Z 32004KT 7000 SCT018 OVC100 28/25 Q1008 NOSIG RMK A2977
RPLC 260300Z 36004KT 7000 -RA SCT018 OVC090 27/25 Q1009 NOSIG RMK A2980
RPLC 260200Z 34004KT 7000 -RA SCT018 OVC090 27/25 Q1009 NOSIG RMK A2980
RPLC 260100Z 36002KT 7000 -RA SCT018 OVC090 27/25 Q1009 NOSIG RMK A2980
RPLC 260000Z 36002KT 7000 -RA SCT018 OVC090 27/25 Q1008 NOSIG RMK A2977
RPLC 252300Z 29002KT 7000 -RA SCT018 OVC090 27/24 Q1008 NOSIG RMK A2977
RPLC 252100Z 34002KT 7000 -RA SCT018 OVC090 26/24 Q1008 NOSIG RMK A2977
RPLC 252000Z 29002KT 7000 -RA SCT018 OVC090 26/24 Q1008 NOSIG RMK A2977
RPLC 251900Z 35002KT 7000 -RA SCT018 OVC090 26/24 Q1008 NOSIG RMK A2977
RPLC 251800Z 34004KT 7000 -RA SCT018 OVC090 26/24 Q1008 NOSIG RMK A2977
RPLC 251700Z 34004KT 7000 SCT018 OVC100 27/24 Q1009 NOSIG RMK A2980
RPLC 251600Z 32004KT 7000 SCT018 OVC100 26/24 Q1009 NOSIG RMK A2980
RPLC 251500Z 36005KT 6000 -RA SCT018 OVC090 27/24 Q1010 RMK A2983
RPLC 251400Z 34003KT 6000 -RA SCT018 OVC090 26/25 Q1010 RMK A2983
RPLC 251300Z 32007KT 6000 -RA SCT018 OVC090 27/25 Q1010 RMK A2983
RPLC 251200Z 14004KT 7000 SCT018 BKN090 28/25 Q1010 RMK A2983
RPLC 251100Z 14002KT 9999 SCT020 BKN100 31/24 Q1009 NOSIG RMK A2980
RPLC 251000Z 14002KT 9999 SCT020 BKN100 32/23 Q1008 NOSIG RK A2977

RPLB (SFS) – SUBIC BAY INTERNATIONAL AIRPORT
RPLB 270100Z 16005KT 9999 SCT018 BKN300 29/26 Q1008 RMK A2977
RPLB 270000Z 34003KT 310V020 9000 VCSH SCT018 BKN300 30/26 Q1008 RMK A2977
RPLB 262300Z VRB01KT 9999 FEW017TCU FEW018 SCT080 BKN300 29/26 Q1008 NOSIG RMK A2977 TCU SW
RPLB 262200Z VRB01KT 9999 FEW018 SCT080 BKN300 27/26 Q1007 RMK A2974
RPLB 262100Z VRB02KT 9999 SCT018 27/26 Q1007 RMK A2974
RPLB 262000Z VRB02KT 9999 FEW020 SCT080 27/26 Q1006 RMK A2971
RPLB 261900Z 19004KT 9999 FEW020 SCT080 28/26 Q1007 RMK A2974
RPLB 261800Z 15004KT 9999 FEW018 SCT080 27/26 Q1006 RMK A2971
RPLB 261700Z 14003KT 9999 FEW018 SCT080 27/25 Q1007 RMK A2974
RPLB 261600Z 16005KT 9999 FEW018 SCT080 27/25 Q1008 RMK A2977
RPLB 261500Z 16004KT 9999 SCT018 BKN080 27/25 Q1009 RMK A2980
RPLB 261400Z VRB02KT 9999 SCT018 OVC080 27/25 Q1008 RMK A2977
RPLB 261300Z VRB02KT 9000 -RA SCT018 OVC080 26/25 Q1008 RMK A2977
RPLB 261200Z 13003KT 110V170 9000 -RA SCT018 OVC080 27/25 Q1008 RMK A2977
RPLB 261100Z 13005KT 9000 -RA SCT018 OVC080 27/26 Q1008 RMK A2977
RPLB 261000Z 20004KT 150V250 9999 SCT018 BKN080 28/25 Q1007 RMK A2974
RPLB 260900Z 16007KT 130V210 9999 SCT018 BKN080 27/25 Q1007 RMK A2974
RPLB 260800Z 17004KT 140V200 9999 FEW017CB SCT018 BKN080 27/26 Q1007 RETSRA RMKA2974 CB SE
RPLB 260700Z 31015KT 3000 TSRA FEW016CB SCT018 OVC080 29/26 Q1007 RMK A2974 OCNL TS OHD
RPLB 260600Z 15006KT 9999 SCT018 BKN080 31/25 Q1007 NOSIG RMK A2974
RPLB 260500Z 07006KT 9999 SCT018 BKN080 31/25 Q1007 NOSIG RMK A2974
RPLB 260400Z 09007KT 9999 SCT018 BKN080 30/25 Q1008 NOSIG RMK A2977
RPLB 260300Z 11006KT 9999 SCT020 BKN080 30/25 Q1008 NOSIG RMK A2977
RPLB 260200Z 05003KT 010V080 9999 BKN020 OVC080 29/25 Q1009 NOSIG RMK A2980
RPLB 260100Z 06003KT 9999 SCT020 BKN080 28/25 Q1009 NOSIG RMK A2980
RPLB 260000Z 05004KT 9999 FEW020 BKN080 27/25 Q1008 NOSIG RMK A2977
RPLB 252300Z 07005KT 9999 SCT020 OVC080 26/25 Q1008 NOSIG RMK A2977
RPLB 252100Z 08003KT 9000 -RA SCT018 OVC080 26/24 Q1007 NOSIG RMK A2974
RPLB 252000Z 07005KT 9000 -RA SCT018 OVC080 26/24 Q1008 NOSIG RMK A2977
RPLB 251900Z 06005KT 9000 -RA SCT018 OVC080 26/24 Q1008 NOSIG RMK A2977
RPLB 251800Z 05005KT 350V090 9999 SCT018 BKN080 28/23 Q1008 NOSIG RMK A2977
RPLB 251700Z 04004KT 9999 SCT020 BKN080 28/24 Q1009 NOSIG RMK A2980
RPLB 251600Z 05007KT 9999 SCT020 BKN080 28/24 Q1008 NOSIG RMK A2977
RPLB 251500Z 07012KT 9999 FEW018CB SCT020 BKN080 28/24 Q1009 RMK A2980 CB/OCNL LTG W
RPLB 251400Z 07011KT 9999 FEW018CB SCT020 BKN080 28/24 Q1010 RMK A2983 DSTNT OCNL LTG NW
RPLB 251300Z 07012KT 9999 TS FEW018CB SCT020 BKN080 29/24 Q1009 RMK A2980 OCNL TS W
RPLB 251200Z 08012KT 9999 SCT020 BKN080 30/25 Q1009 N0SIG RMK A2980
RPLB 251100Z 07009KT 9999 FEW020 SCT080 BKN300 31/25 Q1009 NOSIG RMK A2980
RPLB 251000Z 06007KT 9999 FEW020 SCT080 BKN300 32/24 Q1008 NOSIG RMK A2977

RPLI (LAO) – LAOAG INTERNATIONAL AIRPORT
RPLI 270100Z 17007KT 140V200 9999 FEW017CB BKN280 31/27 Q1007 NOSIG RMK A2974 CB WSW
RPLI 270000Z 13005KT 100V160 9999 FEW017 BKN280 29/26 Q1007 NOSIG RMK A2974 CB WSW
RPLI 262300Z 11006KT 9999 FEW017CB BKN280 27/26 Q1006 NOSIG RMK A2971
RPLI 262200Z 09003KT 050V130 9999 FEW018 BKN280 26/25 Q1005 NOSIG RMK A2968
RPLI 262100Z 09004KT 9999 FEW018 BKN280 26/25 Q1005 NOSIG RMK A2968
RPLI 262000Z 10005KT 9999 FEW018 BKN280 26/25 Q1005 NOSIG RMK A2968
RPLI 261900Z 08002KT 9999 FEW018 BKN280 26/25 Q1005 NOSIG RMK A2968
RPLI 261800Z 10004KT 080V140 9999 FEW018 BKN280 26/25 Q1005 NOSIG RMK A2968
RPLI 261500Z 10004KT 9999 FEW018 BKN280 26/26 Q10007 NOSIG RMK A2974
RPLI 261400Z 13003KT 9999 FEW018 BKN280 26/26 Q1007 NOSIG RMK A2974
RPLI 261300Z 09004KT 9999 FEW018 BKN270 26/26 Q1007 NOSIG RMK A2974
RPLI 261200Z O8004KT 9999 FEW018 BKN280 26/26 Q1007 NOSIG RMK A2974
RPLI 261100Z 12005KT 9999 FEW018 BKN280 26/26 Q1007 NOSIG RMK A2974
RPLI 261000Z 12005KT 8000 VCSH FEW017CB SCT100 BKN270 26/25 Q1007 RETSRA NOSIG RMK A2974 CBSE/S VCSH SE/S
RPLI 260900Z 09009KT 7000 -TSRA FEW017CB BKN070 26/26 Q1007 NOSIG RMK A2974 CB ENE/S
RPLI 260800Z 12013KT 090V160 4000 TS SHRA FEW009 SCT020CB BKN033 27/25 Q1007 NOSIG RMK A2974 CB OHD
RPLI 260700Z 30007KT 270V360 9999 VCTS SCT017CB SCT018 33/29 Q1006 NOSIG RMK A2971 CB NE/S
RPLI 260600Z 27008KT 240V320 9999 VCTS FEW017CB SCT018 33/29 Q1006 NOSIG RMK A2971 CB NE-SE
RPLI 260500Z 26008KT 230V290 9999 FEW017CB BKN240 33/28 Q1006 NOSIG RMK A2971 CB NE/SE
RPLI 260400Z 25008KT 9999 FEW018 BKN280 33/28 Q1007 NOSIG RMK A2974
RPLI 260300Z 25006KT 220V300 9999 FEW018 BKN280 32/28 Q1007 NOSIG RMK A2974
RPLI 260200Z 23007KT 200V280 9999 FEW018 SCT280 32/29 Q1008 NOSIG RMK A2977
RPLI 260100Z 23004KT 200V300 9999 FEW018 BKN280 32/29 Q1007 NOSIG RMK A2974
RPLI 260000Z VRB01KT 9999 FEW018 BKN280 31/28 Q1008 NOSIG RMK A2977
RPLI 252300Z 10004KT 9999 FEW018 BKN280 29/27 Q1008 NOSIG RMK A2977
RPLI 252100Z 07003KT 9999 FEW018 27/26 Q1007 NOSIG RMK A2974
RPLI 252000Z 10004KT 9999 FEW018 27/26 Q1007 NOSIG RMK A2974
RPLI 251900Z 11003KT 9999 FEW018 27/26 Q1007 NOSIG RMK A2974
RPLI 251800Z 11003KT 060V150 9999 FEW018 BKN280 28/27 Q1007 NOSIG RMK A2974
RPLI 251500Z 13004KT 9999 FEW018 BKN280 28/27 Q1008 NOSIG RMK A2977
RPLI 251400Z VRB02KT 9999 FEW018 BKN280 28/27 Q1008 NOSIG RMK A2977
RPLI 251300Z 13004KT 9999 FEW017CB SCT290 29/28 Q1009 RMK A2980 CB SW
RPLI 251200Z 16004KT 9999 FEW018 SCT100 BKN290 30/29 Q1008 NOSIG RMK A2977
RPLI 251100Z 340V040 9999 FEW017CB SCT100 BKN290 30/28 Q1008 NOSIG RMK A2977 CB SW
RPLI 251000Z 36005KT 280V030 8000 SCT018 BKN280 30/29 Q1008 RETSRA NOSIG RMK A2977

RPVP (PPS) – PUERTO PRINCESA INTERNATIONAL AIRPORT
RPVP 270100Z 30006KT 9999 TS FEW017CB SCT080 BKN240 28/26 Q1010 RERA RMK A2983 CB W
RPVP 270000Z 30004KT 9999 -RA FEW017CB SCT080 BKN240 28/27 Q1009 RMK A2980 CB W
RPVP 262300Z 27004KT 9999 FEW017CB SCT080 OVC240 28/25 Q1009 RMK A2980 RETS CB N/SW/W/NW
RPVP 262200Z 27004KT 9999 FEW017CB SCT080 OVC240 27/26 Q1008 RETS RMK A2977 CB W-NW
RPVP 262100Z 24004KT 9999 FEW019 BKN250 27/26 Q1008 RMK A2977
RPVP 261800Z 27006KT 9999 FEW019 BKN250 27/26 Q1008 RMK A2977
RPVP 261500Z 27004KT 9999 FEW017CB BKN250 28/26 Q1010 RMK A2983 CB SE
RPVP 261200Z 27004KT 9999 FEW019 SCT080 OVC240 28/26 Q1009 RMK A2980
RPVP 261100Z 27004KT 9999 FEW019 SCT080 BKN240 28/26 Q1008 RMK A2977
RPVP 261000Z 36004KT 9999 FEW019 OVC080 29/26 Q1008 RMK A2977
RPVP 260900Z 33008KT 9999 FEW017CB OVC080 29/26 Q1008 RETS RMK A2977 CB NW/N
RPVP 260800Z 33010KT 9999 TS SCT017CB BKN080 28/26 Q1008 RMK A2977 CB NW/N/NE/WSW
RPVP 260700Z 27008KT 9999 SCT0CB
RPVP 260600Z 18006KT 9999 -TSRA SCT017CB BKN080 28/26 Q1009 RMK A2980 CB N-NE/S/SW/W
RPVP 260500Z 18010KT 9999 -TSRA SCT017CB BKN080 28/26 Q1009 RMK A2980 CB SE=-SW/N
RPVP 260400Z 18006KT 9999 TS VCSH SCT017CB BKN080 33/25 Q1009 RMK A2980 CB/VCSH SSW-NW
RPVP 260300Z 12006KT 9999 -SHRA FEW017CB SCT019 33/27 Q1010 RMK A2983 CB NW-NNE/SW
RPVP 260200Z 15010KT 9999 SCT018TCU SCT080 33/25 Q1010 RMK A2983 TCU SW/W/N
RPVP 260100Z 18004KT 9999 FEW019 SCT080 33/24 Q1010 RMK A2983
RPVP 260000Z 27004KT 9999 FEW019 BKN080 30/25 Q1009 RMK A2980
RPVP 252300Z 27004KT 9999 FEW018TCU BKN080 29/26 Q1009 RMK A2980 TCU NW/N
RPVP 252100Z 27004KT 9999 FEW019 29/26 Q1008 RMK A2977
RPVP 251800Z 24006KT 9999 FEW019 BKN080 29/26 Q1008 RMK A2977
RPVP 251500Z 27008KT 9999 FEW019 BKN080 29/26 Q1009 RMK A2980
RPVP 251200Z 30006KT 9999 FEW019 SCT250 31/27 Q1008 RMK A2977
RPVP 251100Z 03008KT 9999 FEW019 SCT240 31/27 Q1008 RMK A2977
RPVP 251000Z 03008KT 9999 FEW019TCU SCT240 32/26 Q1007 RMK A2974 TCU E

RPVD (DGT) – SIBULAN AIRPORT (DUMAGUETE AIRPORT)
RPVD 270100Z 14008KT 9999 FEW024 BKN220 31/26 Q1010 RMK A2983
RPVD 270000Z 07004KT 9999 FEW024 BKN220 30/26 Q1009 RMK A2980
RPVD 262100Z 22004KT 9999 FEW014CB BKN070 27/26 Q1008 RMK A2977 CB/OCNL LTG E/SE
RPVD 261800Z 00000KT 9999 SCT015 BKN070 28/26 Q1008 RMK A2977
RPVD 261500Z 25004KT 9999 FEW015 BKN070 29/27 Q1009 RMK A2980
RPVD 261200Z 04004KT 9999 FEW015 BKN070 30/27 Q1009 RMK A2980
RPVD 260900Z 14006KT 9999 FEW024 BKN22032/26 Q1008 RMK A2977
RPVD 260800Z 00000KT 9999 FEW024 OVC220 32/27 Q1007 RMK A2974
RPVD 260700Z 04006KT 9999 SCT024TCU OVC220 32/26 Q1007 RMK A2974 TCU S
RPVD 260600Z 04008KT 9999 SCT024TCU OVC220 35/25 Q1007 RMK A2974 TCU N/SW
RPVD 260500Z 22008KT 9999 FEW024 BKN220 35/25 Q1007 RMK A2974
RPVD 260400Z 16010KT 9999 FEW024TCU BKN220 33/26 Q1008 RMK A2977 TCU NW
RPVD 260300Z 16012KT 9999 FEW024 BKN220 33/26 Q1009 RMK A2980
RPVD 260200Z 16012KT 9999 FEW024 BKN220 32/27 Q1009 RMK A2980
RPVD 260100Z 07008KT 9999 FEW024 BKN220 30/27 Q1009 RMK A2980
RPVD 260000Z 07004KT 9999 FEW024TCU BKN220 30/27 Q1009 RMK A2980 TCU ESE
RPVD 252100Z 22002KT 9999 FEW015 26/24 Q1008 RMK A2977
RPVD 251800Z 25004KT 9999 FEW015 BKN190 26/25 Q1008 RMK A2977
RPVD 251500Z 22004KT 9999 FEW015 27/25 Q1009 RMK A2980
RPVD 251200Z 0000KT 9999 FEW015 SCT070 28/27 Q1008 RMK A2977

RPMR (GES) – GENERAL SANTOS INTERNATIONAL AIRPORT
RPMR 270100Z VRB02KT 9999 FEW018 SCT080 29/24 Q1011 RMK A2985
RPMR 270000Z VRB02KT 9999 FEW018 SCT080 27/24 Q1011 A2985
RPMR 260900Z 03004KT 9999 FEW018CB BKN080 27/26 Q1010 A2983 CB NW
RPMR 260800Z 09008KT 9999 -RA SCT018 OVC080 28/26 Q1009 A2980
RPMR 260700Z 15013KT 9999 VCSH FEW018CB BKN080 30/25 Q1009 A2980 VCSH SE CB W/NW
RPMR 260600Z 15017KT 9999 FEW018CB SCT080 32/24 Q1009 RMK A2980 CB N/NE/E/NW
RPMR 260500Z 16015KT 9999 FEW018CB SCT080 34/23 Q1009 RMK A2980 CB NE/SE/NW
RPMR 260400Z 15013KT 120V180 9999 FEW018 SCT080 33/22 Q1010 RMK A2983
RPMR 260300Z 16009KT 110V210 9999 FEW018 33/22 Q1011 RMK A2985
RPMR 260200Z 13007KT 100V160 9999 FEW018 32/22 Q1011 RMK A2985
RPMR 260100Z 12005KT 080V180 9999 FEW018 SCT080 30/24 Q1011 RMK A2985
RPMR 260000Z VRB01KT 9999 FEW018 30/25 Q1011 RMK A2985

RPMD (DVO) – FRANCISCO BANGOY INTERNATIONAL AIRPORT
RPMD 270100Z VRB02KT 9999 FEW020 BKN080 29/24 Q1010 RMK A2983
RPMD 270000Z VRB02KT 9999 FEW020 SCT080 28/27 Q1010 RMK A2983
RPMD 262300Z 33003KT 300V010 9999 FEW016 BKN260 26/26 Q1010 RMK A2983
RPMD 262200Z 33003KT 300V360 9999 FEW016 SCT080 BKN260 26/26 Q1010 RMK A2983
RPMD 262100Z 23003KT 9999 SCT016 BKN080 26/26 Q1010 RMK A2983
RPMD 262000Z 26005KT 200V290 9999 SCT016 BKN080 26/26 Q1011 RERA RMK A2985
RPMD 261900Z VRB01KT 9999 SCT016 BKN080 27/27 Q1010 RMK A2983
RPMD 261800Z VRB02KT 9999 FEW016 SCT080 26/26 Q1010 RMK A2983
RPMD 261700Z 32002KT 9999 FEW016 26/26 Q1011 RMK A2985
RPMD 261600Z 30003KT 9999 SCT020 BKN080 26/26 Q1011 RMK A2985
RPMD 261500Z 30002KT 9999 FEW016 BKN250 26/26 Q1011 RESHRA RMK A2985
RPMD 261400Z 32003KT 6000 TS -SHRA FEW015CB SCT020 OVC090 26/26 Q1012 RMK A2988 CB W/ LTNG TS N LGT SHRA
RPMD 261300Z 24006KT 9999 TS FEW015CB SCT020 OVC090 28/25 Q1011 RMK A2985 CB W/ LTNG TS NW
RPMD 261200Z 22010KT 9999 -SHRA SCT015 BKN090 OVC250 30/26 Q1011 RMK A2985 LGT SHRA
RPMD 261100Z 17006KT 9999 FEW015CB BKN090 OVC250 30/26 Q1011 RMK A2985 CB/LTNG NW
RPMD 261000Z 16006KT 9999 FEW016 SCT090 BKN250 30/26 Q1010 RMK A2983
RPMD 260900Z 19008KT 9999 FEW015CB SCT090 BKN260 30/26 Q1009 RMK A2980 CB SW
RPMD 260800Z 19011KT 9999 SCT015CB SCT090 BKN260 31/26 Q1008 RMK A2977 CB N/SSE/SW
RPMD 260700Z 19013KT 9999 SCT015CB SCT090 BKN260 31/26 Q1008 RMK A2977 CB NE/SSW/W
RPMD 260600Z 19013KT 9999 SCT015CB 32/26 Q1008 RMK A2977 CB NE/SW-W
RPMD 260500Z 19010KT 9999 SCT015CB 33/25 Q1008 RMK A2977 CB NE/SW/W
RPMD 260400Z 19010KT 160V220 9999 FEW015CB 33/24 Q1010 RMK A2983 CB SW/NW
RPMD 260300Z 16008KT 130V190 9999 FEW016 32/25 Q1010 RMK A2983
RPMD 260200Z 18008KT 150V220 9999 FEW016 31/26 Q1011 RMK A2985
RPMD 260100Z 18006KT 140V210 9999 SCT016 31/26 Q1011 RMK A2985
RPMD 260000Z 19006KT 150V230 9999 FEW015CB 30/26 Q1011 RMK A2985 CB S
RPMD 252300Z 17005KT 120V240 9999 FEW016 SCT090 29/28 Q1010 RMK A2983
RPMD 252100Z 22004KT 190V250 9000 -RA SCT015 BKN080 27/27 Q1009 RMK A2980
RPMD 252000Z 28002KT 9999 FEW015CB 28/26 Q1009 RMK A2980 CB/OCNL LTG SW-W
RPMD 251900Z 14003KT 9999 SCT020 SCT080 29/26 Q1009 RMK A2980
RPMD 251800Z 16006KT 120V190 9999 FEW015CB SCT090 28/25 Q1009 RMK A2980 CB/LTG SW
RPMD 251700Z 16006KT 9000 -SHRA FEW015 BKN020 29/26 Q1009 RMK A2980
RPMD 251600Z 16005KT 130V210 9999 SCT016TCU 29/27 Q1010 RMK A2983 TCU SE/S/W
RPMD 251500Z 17004KT 150V250 9999 SCT018 BKN080 30/26 Q1010 RMK A2983
RPMD 251400Z 19008KT 9999 SCT018 BKN080 30/26 Q1011 RMK A2985
RPMD 251300Z 18008KT 9999 FEW018 30/26 Q1010 RMK A2983
RPMD 251200Z 18009KT 9999 FEW018 30/26 Q1010 RMK A2983
RPMD 251100Z 18010KT 9999 FEW018 SCT260 30/26 Q1009 RMK A2980
RPMD 251000Z 20011KT 9999 FEW018 BKN260 30/26 Q1008 RMK A2977

RPMZ (ZAM) – ZAMBOANGA INTERNATIONAL AIRPORT
RPMZ 270100Z 21005KT 170V250 9999 FEW017 SCT300 31/25 Q1011 RMK A2985
RPMZ 270000Z 05004KT 010V100 9999 FEW017 BKN300 31/25 Q1010 RMK A2983
RPMZ 262300Z 02004KT 350V050 9999 FEW018CB BKN100 30/26 Q1010 NOSIG RMK A2983 CB N/SW/W
RPMZ 262200Z 02004KT 9999 FEW016CB BKN300 26/24 Q1010 RMK A2983 CB NE
RPMZ 262100Z 04003KT 020V080 9999 FEW017 BKN300 26/24 Q1009 RMK A2980
RPMZ 261800Z 01002KT 9999 FEW017 BKN300 26/25 Q1009 RMK A2980
RPMZ 261500Z 27004KT 9999 FEW016CB FEW017 BKN090 28/26 Q1011 RMK A2985 CB E
RPMZ 261200Z 29003KT 9999 FEW016CB FEW017 BKN090 29/26 Q1010 RMK A2983 CB MVNG N
RPMZ 261000Z VRB02KT 9999 FEW016CB BKN090 29/24 Q1010 RMK A2983 CB N/NE
RPMZ 260900Z VRB01KT 9999 FEW016CB BKN090 30/25 Q1009 RMK A2980 CB N/SW/W
RPMZ 260800Z 21003KT 120V270 9999 FEW016CB BKN090 29/25 Q1008 RMK A2977 CB N/NE/S
RPMZ 260700Z VRB02KT 9999 SCT016CB BKN09029/24 Q1009 RMK A2980 CB N/NE/SE/S
RPMZ 260600Z 20004KT 130V260 9999 SCT016CB BKN090 30/25 Q1009 RMK A2980 CB SE-SW/N/OHD
RPMZ 260500Z 17005KT 110V230 9999 SCT016CB BKN090 30/24 Q1010 RMK A2983 CB SE-SW/N/OHD
RPMZ 260400Z 16006KT 080V210 9999 FEW016CB SCT090 33/25 Q1010 RMK A2983 CB N/S
RPMZ 260300Z VRB05KT 9999 FEW016CB SCT300 33/26 Q1011 RMK A2985 CB S
RPMZ 260200Z 15006KT 100V210 9999 FEW017 BKN300 32/26 Q1011 RMK A2985
RPMZ 260100Z 17005KT 120V220 9999 FEW017 BKN300 32/25 Q1011 RMK A2985
RPMZ 260000Z VRB01KT 9999 FEW017 BKN300 31/24 Q1010 RMK A2983
RPMZ 252300Z VRB02KT 9999 FEW017 SCT300 29/25 Q1010 RMK A2983
RPMZ 252100Z VRB01KT 9999 FEW017 SCT300 25/24 Q1009 RMK A2980
RPMZ 251800Z VRB01KT 9999 FEW017 SCT300 26/24 Q1009 RMK A2980
RPMZ 251500Z 02003KT 350V060 9999 FEW017 BKN300 27/24 Q1010 RMK A2983
RPMZ 251000Z 27003KT 9999 FEW019TCU SCT240 32/26 Q1007 RMK A2974 TCU E